createdAt,value
2023-04-25T00:01:24.837Z,3.30
2023-04-25T00:04:13.122Z,3.05
2023-04-25T00:07:03.342Z,4.45
2023-04-25T00:09:51.676Z,2.22
2023-04-25T00:12:39.996Z,2.90
2023-04-25T00:15:31.744Z,2.88
2023-04-25T00:18:20.110Z,2.55
2023-04-25T00:21:08.592Z,1.88
2023-04-25T00:23:56.854Z,2.92
2023-04-25T00:26:44.769Z,3.28
2023-04-25T00:29:32.927Z,1.98
2023-04-25T00:32:21.675Z,3.95
2023-04-25T00:35:09.741Z,2.45
2023-04-25T00:37:57.476Z,2.40
2023-04-25T00:40:45.747Z,4.53
2023-04-25T00:43:35.137Z,2.53
2023-04-25T00:46:22.773Z,2.88
2023-04-25T00:49:16.511Z,2.83
2023-04-25T00:52:04.566Z,2.15
2023-04-25T00:54:52.250Z,2.38
2023-04-25T00:57:40.922Z,1.70
2023-04-25T01:00:28.644Z,1.98
2023-04-25T01:03:17.274Z,1.73
2023-04-25T01:06:07.430Z,2.33
2023-04-25T01:08:55.160Z,1.73
2023-04-25T01:11:43.311Z,2.35
2023-04-25T01:14:31.353Z,1.80
2023-04-25T01:17:19.888Z,2.58
2023-04-25T01:20:10.624Z,2.70
2023-04-25T01:22:59.711Z,2.30
2023-04-25T01:25:47.961Z,3.20
2023-04-25T01:28:36.932Z,2.53
2023-04-25T01:31:24.687Z,2.40
2023-04-25T01:34:12.201Z,3.53
2023-04-25T01:37:02.309Z,1.52
2023-04-25T01:39:51.547Z,2.30
2023-04-25T01:42:41.625Z,2.70
2023-04-25T01:45:29.368Z,3.60
2023-04-25T01:48:17.259Z,2.45
2023-04-25T01:51:05.624Z,2.92
2023-04-25T01:53:53.960Z,2.38
2023-04-25T01:56:43.234Z,2.30
2023-04-25T01:59:32.949Z,2.05
2023-04-25T02:02:39.574Z,4.37
2023-04-25T02:05:37.769Z,3.70
2023-04-25T02:08:27.894Z,4.60
2023-04-25T02:11:16.622Z,4.38
2023-04-25T02:14:12.671Z,4.03
2023-04-25T02:17:06.772Z,3.28
2023-04-25T02:19:54.586Z,3.72
2023-04-25T02:22:42.959Z,4.72
2023-04-25T02:25:31.021Z,2.83
2023-04-25T02:28:19.470Z,4.78
2023-04-25T02:31:08.447Z,4.35
2023-04-25T02:33:55.876Z,3.55
2023-04-25T02:36:43.515Z,5.05
2023-04-25T02:39:31.428Z,4.63
2023-04-25T02:42:19.104Z,3.50
2023-04-25T02:45:07.577Z,4.38
2023-04-25T02:47:57.226Z,3.90
2023-04-25T02:50:45.836Z,4.85
2023-04-25T02:53:33.603Z,6.45
2023-04-25T02:56:21.102Z,4.85
2023-04-25T02:59:08.585Z,5.45
2023-04-25T03:01:57.065Z,4.55
2023-04-25T03:04:47.466Z,6.32
2023-04-25T03:07:35.435Z,4.97
2023-04-25T03:10:22.725Z,5.30
2023-04-25T03:13:10.407Z,6.50
2023-04-25T03:15:58.930Z,5.60
2023-04-25T03:18:47.196Z,5.25
2023-04-25T03:21:37.413Z,6.00
2023-04-25T03:24:25.014Z,6.03
2023-04-25T03:27:14.371Z,5.47
2023-04-25T03:30:02.200Z,12.25
2023-04-25T03:32:50.571Z,17.73
2023-04-25T03:35:38.640Z,13.35
2023-04-25T03:38:27.672Z,9.88
2023-04-25T03:41:15.410Z,7.95
2023-04-25T03:44:06.666Z,10.85
2023-04-25T03:46:54.453Z,9.00
2023-04-25T03:49:42.461Z,8.30
2023-04-25T03:52:29.843Z,9.40
2023-04-25T03:55:18.900Z,7.03
2023-04-25T03:58:06.530Z,7.38
2023-04-25T04:00:54.088Z,10.55
2023-04-25T04:03:42.416Z,6.85
2023-04-25T04:06:31.025Z,8.18
2023-04-25T04:09:29.643Z,7.55
2023-04-25T04:12:20.920Z,8.63
2023-04-25T04:15:09.497Z,7.30
2023-04-25T04:17:57.377Z,8.73
2023-04-25T04:20:44.837Z,7.95
2023-04-25T04:23:32.783Z,6.68
2023-04-25T04:26:20.827Z,7.95
2023-04-25T04:29:26.279Z,10.73
2023-04-25T04:32:31.303Z,8.52
2023-04-25T04:35:19.088Z,8.23
2023-04-25T04:38:07.217Z,9.13
2023-04-25T04:40:55.961Z,8.23
2023-04-25T04:43:57.031Z,6.63
2023-04-25T04:46:59.679Z,7.32
2023-04-25T04:50:22.627Z,7.25
2023-04-25T04:53:32.826Z,9.68
2023-04-25T04:56:36.110Z,11.52
2023-04-25T04:59:41.973Z,9.60
2023-04-25T05:03:06.703Z,9.60
2023-04-25T05:06:20.929Z,9.85
2023-04-25T05:09:29.632Z,10.30
2023-04-25T05:12:55.559Z,7.55
2023-04-25T05:15:55.071Z,9.85
2023-04-25T05:19:02.417Z,10.35
2023-04-25T05:22:19.641Z,7.38
2023-04-25T05:25:30.429Z,8.10
2023-04-25T05:31:29.656Z,9.23
2023-04-25T05:34:30.263Z,10.55
2023-04-25T05:37:21.077Z,9.32
2023-04-25T05:40:16.396Z,8.88
2023-04-25T05:43:03.933Z,8.23
2023-04-25T05:46:24.208Z,9.15
2023-04-25T05:49:48.400Z,7.55
2023-04-25T05:52:55.115Z,8.27
2023-04-25T05:55:51.049Z,9.20
2023-04-25T06:04:21.646Z,8.60
2023-04-25T06:07:10.751Z,10.05
2023-04-25T06:09:58.328Z,8.98
2023-04-25T06:12:47.298Z,9.13
2023-04-25T06:15:36.984Z,8.07
2023-04-25T06:18:24.683Z,7.22
2023-04-25T06:21:12.196Z,6.75
2023-04-25T06:24:01.275Z,7.50
2023-04-25T06:26:49.827Z,7.07
2023-04-25T06:29:37.262Z,8.77
2023-04-25T06:32:24.867Z,6.68
2023-04-25T06:35:12.416Z,8.40
2023-04-25T06:38:00.134Z,10.40
2023-04-25T06:40:53.528Z,8.60
2023-04-25T06:43:40.977Z,8.10
2023-04-25T06:46:52.176Z,8.55
2023-04-25T06:49:40.790Z,6.82
2023-04-25T06:52:29.995Z,8.40
2023-04-25T06:55:18.117Z,6.90
2023-04-25T06:58:32.800Z,9.85
2023-04-25T07:01:28.050Z,8.57
2023-04-25T07:04:15.974Z,7.93
2023-04-25T07:07:09.472Z,6.18
2023-04-25T07:10:12.931Z,6.90
2023-04-25T07:13:00.438Z,11.52
2023-04-25T07:15:49.707Z,6.60
2023-04-25T07:18:39.756Z,6.55
2023-04-25T07:21:27.742Z,6.65
2023-04-25T07:24:16.487Z,7.03
2023-04-25T07:27:07.546Z,6.65
2023-04-25T07:30:11.583Z,7.28
2023-04-25T07:33:01.720Z,6.07
2023-04-25T07:35:49.467Z,7.65
2023-04-25T07:38:38.709Z,8.57
2023-04-25T07:41:26.602Z,5.43
2023-04-25T07:44:14.487Z,4.82
2023-04-25T07:47:04.404Z,6.93
2023-04-25T07:49:54.063Z,8.18
2023-04-25T07:52:42.806Z,5.40
2023-04-25T07:55:45.627Z,5.10
2023-04-25T07:58:37.282Z,5.50
2023-04-25T08:01:28.034Z,5.88
2023-04-25T08:04:22.083Z,7.55
2023-04-25T08:07:16.220Z,4.25
2023-04-25T08:10:11.405Z,4.07
2023-04-25T08:12:59.638Z,4.80
2023-04-25T08:15:47.106Z,6.72
2023-04-25T08:18:34.996Z,5.47
2023-04-25T08:21:23.016Z,6.75
2023-04-25T08:24:12.631Z,8.68
2023-04-25T08:27:01.815Z,7.70
2023-04-25T08:29:50.424Z,8.57
2023-04-25T08:32:39.167Z,7.78
2023-04-25T08:35:41.018Z,7.60
2023-04-25T08:38:28.550Z,7.75
2023-04-25T08:41:18.466Z,6.18
2023-04-25T08:44:08.048Z,3.50
2023-04-25T08:46:57.641Z,8.52
2023-04-25T08:49:50.627Z,5.88
2023-04-25T08:52:45.705Z,6.03
2023-04-25T08:55:34.209Z,7.90
2023-04-25T08:58:23.775Z,8.68
2023-04-25T09:01:11.413Z,6.38
2023-04-25T09:04:06.994Z,7.15
2023-04-25T09:06:55.327Z,11.07
2023-04-25T09:09:43.171Z,7.63
2023-04-25T09:12:32.031Z,6.75
2023-04-25T09:15:22.294Z,6.15
2023-04-25T09:18:37.123Z,8.75
2023-04-25T09:21:25.263Z,5.95
2023-04-25T09:24:12.706Z,8.65
2023-04-25T09:27:00.066Z,7.13
2023-04-25T09:29:47.861Z,10.57
2023-04-25T09:32:37.746Z,7.88
2023-04-25T09:35:27.602Z,9.57
2023-04-25T09:38:19.285Z,7.40
2023-04-25T09:41:13.288Z,7.15
2023-04-25T09:44:05.387Z,8.43
2023-04-25T09:46:56.991Z,7.43
2023-04-25T09:49:49.536Z,9.73
2023-04-25T09:52:37.834Z,7.72
2023-04-25T09:55:41.369Z,8.27
2023-04-25T09:58:33.318Z,6.10
2023-04-25T10:01:23.825Z,5.90
2023-04-25T10:04:29.184Z,5.88
2023-04-25T10:07:27.210Z,5.55
2023-04-25T10:10:15.940Z,4.57
2023-04-25T10:13:06.158Z,7.80
2023-04-25T10:15:56.049Z,7.15
2023-04-25T10:18:43.758Z,5.47
2023-04-25T10:21:33.764Z,6.90
2023-04-25T10:24:23.796Z,5.13
2023-04-25T10:27:12.084Z,6.30
2023-04-25T10:30:05.561Z,7.78
2023-04-25T10:32:53.084Z,3.58
2023-04-25T10:35:41.530Z,3.92
2023-04-25T10:38:29.003Z,4.60
2023-04-25T10:41:21.578Z,3.22
2023-04-25T10:44:10.634Z,4.50
2023-04-25T10:46:59.623Z,2.55
2023-04-25T10:49:47.051Z,3.60
2023-04-25T10:52:35.721Z,2.35
2023-04-25T10:55:24.115Z,4.07
2023-04-25T10:58:13.049Z,3.75
2023-04-25T11:01:00.732Z,4.15
2023-04-25T11:03:50.379Z,2.95
2023-04-25T11:06:50.791Z,3.47
2023-04-25T11:09:42.230Z,4.18
2023-04-25T11:12:32.015Z,5.78
2023-04-25T11:15:20.849Z,3.60
2023-04-25T11:18:11.809Z,4.65
2023-04-25T11:20:59.703Z,4.25
2023-04-25T11:23:48.835Z,2.58
2023-04-25T11:26:38.668Z,2.78
2023-04-25T11:29:28.458Z,2.88
2023-04-25T11:32:19.273Z,2.67
2023-04-25T11:35:09.402Z,2.80
2023-04-25T11:37:56.961Z,1.98
2023-04-25T11:40:44.714Z,2.20
2023-04-25T11:43:32.453Z,3.40
2023-04-25T11:46:21.329Z,2.92
2023-04-25T11:49:10.658Z,2.08
2023-04-25T11:51:58.118Z,3.70
2023-04-25T11:54:47.757Z,3.45
2023-04-25T11:57:35.770Z,4.50
2023-04-25T12:00:24.649Z,1.77
2023-04-25T12:03:12.456Z,2.33
2023-04-25T12:06:06.855Z,2.10
2023-04-25T12:09:05.251Z,2.33
2023-04-25T12:11:56.254Z,1.52
2023-04-25T12:14:49.810Z,3.53
2023-04-25T12:17:38.702Z,3.13
2023-04-25T12:20:27.708Z,1.90
2023-04-25T12:23:16.798Z,2.00
2023-04-25T12:26:04.586Z,3.53
2023-04-25T12:28:53.883Z,2.97
2023-04-25T12:31:41.530Z,2.97
2023-04-25T12:34:29.298Z,1.73
2023-04-25T12:37:17.275Z,2.78
2023-04-25T12:40:07.700Z,2.38
2023-04-25T12:42:55.415Z,3.15
2023-04-25T12:45:43.326Z,2.28
2023-04-25T12:48:31.314Z,5.28
2023-04-25T12:51:18.818Z,2.28
2023-04-25T12:54:08.168Z,1.50
2023-04-25T12:56:57.280Z,2.17
2023-04-25T12:59:44.657Z,1.92
2023-04-25T13:02:32.131Z,2.83
2023-04-25T13:05:19.679Z,3.13
2023-04-25T13:08:07.517Z,1.83
2023-04-25T13:10:54.968Z,2.95
2023-04-25T13:13:43.850Z,2.38
2023-04-25T13:16:31.658Z,2.78
2023-04-25T13:19:19.364Z,5.50
2023-04-25T13:22:07.650Z,2.95
2023-04-25T13:24:55.348Z,3.60
2023-04-25T13:27:42.797Z,4.25
2023-04-25T13:30:32.156Z,4.32
2023-04-25T13:33:20.178Z,2.72
2023-04-25T13:36:07.970Z,3.10
2023-04-25T13:38:55.533Z,2.97
2023-04-25T13:41:43.098Z,4.97
2023-04-25T13:44:30.757Z,5.00
2023-04-25T13:47:19.601Z,2.05
2023-04-25T13:50:08.957Z,2.03
2023-04-25T13:52:56.692Z,2.35
2023-04-25T13:55:44.187Z,2.72
2023-04-25T13:58:31.728Z,2.75
2023-04-25T14:01:19.314Z,4.82
2023-04-25T14:04:08.238Z,3.13
2023-04-25T14:06:56.273Z,7.47
2023-04-25T14:09:44.086Z,4.93
2023-04-25T14:12:31.817Z,4.15
2023-04-25T14:15:19.333Z,1.85
2023-04-25T14:18:07.006Z,3.05
2023-04-25T14:20:55.903Z,3.83
2023-04-25T14:23:43.774Z,1.95
2023-04-25T14:26:31.372Z,2.65
2023-04-25T14:29:19.392Z,4.57
2023-04-25T14:32:07.642Z,6.25
2023-04-25T14:34:55.287Z,7.80
2023-04-25T14:37:44.183Z,4.50
2023-04-25T14:40:31.548Z,3.20
2023-04-25T14:43:19.214Z,4.03
2023-04-25T14:46:07.646Z,3.75
2023-04-25T14:48:57.024Z,3.00
2023-04-25T14:51:45.011Z,3.08
2023-04-25T14:54:34.229Z,4.32
2023-04-25T14:57:21.748Z,2.85
2023-04-25T15:00:10.913Z,4.53
2023-04-25T15:02:58.708Z,5.95
2023-04-25T15:05:46.465Z,3.80
2023-04-25T15:08:33.999Z,2.33
2023-04-25T15:11:23.129Z,3.55
2023-04-25T15:14:11.214Z,4.72
2023-04-25T15:16:58.468Z,2.70
2023-04-25T15:19:45.920Z,2.47
2023-04-25T15:22:33.646Z,1.77
2023-04-25T15:25:21.270Z,2.70
2023-04-25T15:28:10.050Z,3.40
2023-04-25T15:30:58.524Z,2.85
2023-04-25T15:33:46.264Z,2.97
2023-04-25T15:36:34.392Z,2.28
2023-04-25T15:39:21.833Z,3.95
2023-04-25T15:42:09.570Z,3.50
2023-04-25T15:44:58.350Z,4.28
2023-04-25T15:47:46.569Z,5.55
2023-04-25T15:50:34.622Z,4.30
2023-04-25T15:53:22.137Z,4.70
2023-04-25T15:56:09.980Z,5.13
2023-04-25T15:58:57.631Z,6.32
2023-04-25T16:01:46.401Z,6.53
2023-04-25T16:04:35.663Z,5.05
2023-04-25T16:07:23.490Z,3.92
2023-04-25T16:10:12.251Z,4.82
2023-04-25T16:12:59.886Z,4.82
2023-04-25T16:15:47.355Z,5.00
2023-04-25T16:18:37.063Z,3.58
2023-04-25T16:21:24.890Z,4.03
2023-04-25T16:24:12.709Z,5.93
2023-04-25T16:26:59.861Z,5.43
2023-04-25T16:29:49.580Z,4.82
2023-04-25T16:32:38.078Z,3.60
2023-04-25T16:35:30.532Z,4.60
2023-04-25T16:38:18.293Z,3.03
2023-04-25T16:41:10.352Z,3.13
2023-04-25T16:43:58.234Z,5.05
2023-04-25T16:46:45.794Z,5.93
2023-04-25T16:49:33.670Z,3.78
2023-04-25T16:52:23.943Z,2.78
2023-04-25T16:55:11.475Z,2.25
2023-04-25T16:57:58.887Z,5.05
2023-04-25T17:00:47.066Z,3.50
2023-04-25T17:03:35.658Z,4.13
2023-04-25T17:06:23.404Z,5.32
2023-04-25T17:09:12.137Z,3.75
2023-04-25T17:11:59.853Z,2.63
2023-04-25T17:14:47.752Z,2.75
2023-04-25T17:17:35.730Z,4.47
2023-04-25T17:20:23.712Z,6.85
2023-04-25T17:23:12.816Z,6.63
2023-04-25T17:26:02.569Z,6.10
2023-04-25T17:28:50.287Z,6.70
2023-04-25T17:31:38.237Z,6.32
2023-04-25T17:34:26.339Z,6.47
2023-04-25T17:37:16.360Z,8.52
2023-04-25T17:40:05.056Z,6.30
2023-04-25T17:42:54.190Z,6.32
2023-04-25T17:45:41.944Z,7.60
2023-04-25T17:48:30.240Z,8.35
2023-04-25T17:51:17.968Z,8.32
2023-04-25T17:54:05.848Z,7.60
2023-04-25T17:56:53.492Z,11.00
2023-04-25T17:59:42.942Z,8.88
2023-04-25T18:02:30.693Z,10.45
2023-04-25T18:05:19.094Z,10.40
2023-04-25T18:08:07.374Z,12.57
2023-04-25T18:10:55.268Z,11.90
2023-04-25T18:13:43.250Z,14.50
2023-04-25T18:16:32.195Z,9.60
2023-04-25T18:19:22.670Z,7.70
2023-04-25T18:22:10.416Z,8.77
2023-04-25T18:24:57.974Z,12.63
2023-04-25T18:27:46.275Z,9.25
2023-04-25T18:30:33.966Z,17.90
2023-04-25T18:33:23.395Z,12.15
2023-04-25T18:36:12.246Z,12.75
2023-04-25T18:41:56.443Z,12.35
2023-04-25T18:44:47.460Z,10.90
2023-04-25T18:47:35.239Z,10.38
2023-04-25T18:50:26.438Z,10.98
2023-04-25T18:53:17.010Z,12.00
2023-04-25T18:56:04.851Z,20.00
2023-04-25T18:58:53.588Z,14.75
2023-04-25T19:01:42.251Z,18.95
2023-04-25T19:04:29.858Z,23.08
2023-04-25T19:07:20.978Z,14.50
2023-04-25T19:10:09.601Z,18.02
2023-04-25T19:12:57.420Z,17.10
2023-04-25T19:15:45.020Z,18.88
2023-04-25T19:18:32.586Z,18.25
2023-04-25T19:21:20.209Z,10.55
2023-04-25T19:24:09.387Z,16.25
2023-04-25T19:26:57.252Z,16.20
2023-04-25T19:29:48.292Z,17.58
2023-04-25T19:32:36.531Z,14.30
2023-04-25T19:35:23.901Z,15.90
2023-04-25T19:38:11.704Z,18.67
2023-04-25T19:41:01.330Z,18.73
2023-04-25T19:43:49.136Z,15.40
2023-04-25T19:46:38.057Z,17.00
2023-04-25T19:49:25.874Z,10.85
2023-04-25T19:52:15.050Z,13.75
2023-04-25T19:55:04.994Z,17.52
2023-04-25T19:57:54.157Z,16.20
2023-04-25T20:00:41.819Z,14.10
2023-04-25T20:03:30.009Z,18.45
2023-04-25T20:06:18.052Z,14.43
2023-04-25T20:09:06.685Z,14.00
2023-04-25T20:11:54.366Z,14.80
2023-04-25T20:14:44.258Z,18.88
2023-04-25T20:17:32.108Z,20.95
2023-04-25T20:20:20.223Z,22.48
2023-04-25T20:23:10.621Z,19.42
2023-04-25T20:25:58.187Z,18.77
2023-04-25T20:28:46.324Z,16.05
2023-04-25T20:31:36.975Z,13.38
2023-04-25T20:34:25.408Z,15.10
2023-04-25T20:37:13.620Z,13.60
2023-04-25T20:40:03.915Z,21.30
2023-04-25T20:42:52.367Z,10.48
2023-04-25T20:45:40.206Z,15.80
2023-04-25T20:48:29.260Z,17.20
2023-04-25T20:51:16.708Z,14.32
2023-04-25T20:54:04.917Z,13.82
2023-04-25T20:56:52.488Z,18.55
2023-04-25T20:59:39.714Z,17.17
2023-04-25T21:02:27.549Z,15.07
2023-04-25T21:05:22.153Z,14.68
2023-04-25T21:08:10.204Z,14.23
2023-04-25T21:10:57.611Z,17.55
2023-04-25T21:13:45.418Z,20.05
2023-04-25T21:16:35.369Z,18.13
2023-04-25T21:19:23.041Z,17.48
2023-04-25T21:22:12.163Z,22.17
2023-04-25T21:25:06.056Z,20.25
2023-04-25T21:27:54.238Z,17.45
2023-04-25T21:30:42.538Z,19.20
2023-04-25T21:33:29.938Z,16.30
2023-04-25T21:36:17.640Z,15.13
2023-04-25T21:39:06.760Z,15.52
2023-04-25T21:41:54.353Z,14.68
2023-04-25T21:44:42.146Z,12.85
2023-04-25T21:47:29.944Z,12.43
2023-04-25T21:50:18.032Z,9.30
2023-04-25T21:53:06.321Z,13.60
2023-04-25T21:55:55.193Z,13.30
2023-04-25T21:58:42.725Z,10.45
2023-04-25T22:01:30.676Z,15.63
2023-04-25T22:04:18.740Z,13.98
2023-04-25T22:07:06.619Z,12.57
2023-04-25T22:09:55.811Z,12.32
2023-04-25T22:12:46.766Z,14.07
2023-04-25T22:15:35.598Z,12.95
2023-04-25T22:18:23.357Z,12.18
2023-04-25T22:21:10.821Z,12.48
2023-04-25T22:24:00.305Z,13.07
2023-04-25T22:26:49.362Z,9.85
2023-04-25T22:29:38.568Z,13.68
2023-04-25T22:32:27.463Z,12.40
2023-04-25T22:35:14.910Z,10.07
2023-04-25T22:38:02.549Z,16.95
2023-04-25T22:40:50.262Z,11.98
2023-04-25T22:43:39.788Z,12.82
2023-04-25T22:46:28.845Z,12.63
2023-04-25T22:49:17.312Z,14.63
2023-04-25T22:52:08.534Z,12.23
2023-04-25T22:54:56.434Z,7.43
2023-04-25T22:57:43.986Z,10.88
2023-04-25T23:00:34.452Z,9.35
2023-04-25T23:03:23.885Z,7.95
2023-04-25T23:06:11.837Z,9.23
2023-04-25T23:09:00.503Z,15.93
2023-04-25T23:11:48.288Z,9.57
2023-04-25T23:14:36.772Z,12.40
2023-04-25T23:17:24.863Z,13.48
2023-04-25T23:20:14.370Z,16.77
2023-04-25T23:23:01.864Z,14.18
2023-04-25T23:25:49.362Z,12.05
2023-04-25T23:28:49.010Z,10.88
2023-04-25T23:31:37.529Z,10.75
2023-04-25T23:34:25.454Z,11.60
2023-04-25T23:37:14.581Z,9.82
2023-04-25T23:40:02.063Z,11.20
2023-04-25T23:42:49.713Z,13.85
2023-04-25T23:45:37.302Z,10.77
2023-04-25T23:48:24.890Z,14.43
2023-04-25T23:51:12.511Z,13.48
2023-04-25T23:54:02.844Z,11.07
2023-04-25T23:56:52.024Z,15.95
2023-04-25T23:59:39.890Z,13.73
